KBTP/BTP METAR and TAF weather

Enter ICAO airport designator
Station Type Date Time Source
KBTP METAR 2020/11/28 19:56 UTC NOAA

KBTP 281956Z AUTO 28007KT 10SM CLR 07/M03 A3012 RMK AO2 SLP213 T00671033 PNO $


Station Type Date Time Source
KBTP Decoded METAR 2020/11/28 19:56 UTC NOAA

Butler, Butler County Airport/K W Scholter Field, PA, United States (KBTP) 40-47N 079-57W
Nov 28, 2020 - 02:56 PM EST / 2020.11.28 1956 UTC
Wind: from the W (280 degrees) at 8 MPH (7 KT):0
Visibility: 10 mile(s):0
Sky conditions: clear
Temperature: 44.1 F (6.7 C)
Dew Point: 26.1 F (-3.3 C)
Relative Humidity: 48%
Pressure (altimeter): 30.12 in. Hg (1019 hPa)
ob: KBTP 281956Z AUTO 28007KT 10SM CLR 07/M03 A3012 RMK AO2 SLP213 T00671033 PNO
cycle: 20

Station Type Date Time Source
KBTP TAF UTC NOAA

Error!

Example: see airport list